Terminal Aerodrome Forecast
Issued by NWS

Home | Current Version | Previous Version | Text Only | Print | Product List | Glossary On
Versions: 1 2 3 4 5 6 7 8 9 10 11 12 13 14 15 16
000
FTUS43 KMQT 251136
TAFCMX
TAF
KCMX 251136Z 2512/2612 19009KT P6SM FEW200
     FM251800 18012G22KT P6SM SCT150
     FM252300 19009KT P6SM BKN110
     FM260300 19009KT P6SM VCSH BKN045 WS010/24040KT
     FM260600 21010KT P6SM -SHRA VCTS OVC030CB WS010/24040KT
     FM260800 26011KT P6SM OVC020=

USA.gov is the U.S. government's official web portal to all federal, state and local government web resources and services.